sensor_id;sensor_type;location;lat;lon;timestamp;P1;durP1;ratioP1;P2;durP2;ratioP2
76439;SDS011;65274;44.982;20.060;2023-07-29T00:02:10;2.63;;;2.42;;
76439;SDS011;65274;44.982;20.060;2023-07-29T00:04:36;2.28;;;2.17;;
76439;SDS011;65274;44.982;20.060;2023-07-29T00:07:02;2.97;;;2.20;;
76439;SDS011;65274;44.982;20.060;2023-07-29T00:09:28;3.15;;;2.60;;
76439;SDS011;65274;44.982;20.060;2023-07-29T00:11:54;2.38;;;2.17;;
76439;SDS011;65274;44.982;20.060;2023-07-29T00:14:20;2.30;;;2.10;;
76439;SDS011;65274;44.982;20.060;2023-07-29T00:16:46;3.50;;;3.20;;
76439;SDS011;65274;44.982;20.060;2023-07-29T00:19:12;2.45;;;2.22;;
76439;SDS011;65274;44.982;20.060;2023-07-29T00:21:38;4.28;;;3.63;;
76439;SDS011;65274;44.982;20.060;2023-07-29T00:24:06;2.83;;;2.50;;
76439;SDS011;65274;44.982;20.060;2023-07-29T00:26:41;3.67;;;3.13;;
76439;SDS011;65274;44.982;20.060;2023-07-29T00:29:12;4.35;;;3.58;;
76439;SDS011;65274;44.982;20.060;2023-07-29T00:31:38;3.75;;;2.85;;
76439;SDS011;65274;44.982;20.060;2023-07-29T00:34:05;3.22;;;2.92;;
76439;SDS011;65274;44.982;20.060;2023-07-29T00:36:31;4.35;;;3.72;;
76439;SDS011;65274;44.982;20.060;2023-07-29T00:38:57;3.22;;;2.92;;
76439;SDS011;65274;44.982;20.060;2023-07-29T00:41:23;2.92;;;2.50;;
76439;SDS011;65274;44.982;20.060;2023-07-29T00:43:50;2.70;;;2.40;;
76439;SDS011;65274;44.982;20.060;2023-07-29T00:46:16;3.60;;;3.25;;
76439;SDS011;65274;44.982;20.060;2023-07-29T00:48:43;2.75;;;2.55;;
76439;SDS011;65274;44.982;20.060;2023-07-29T00:51:09;2.25;;;2.05;;
76439;SDS011;65274;44.982;20.060;2023-07-29T00:53:35;2.83;;;2.63;;
76439;SDS011;65274;44.982;20.060;2023-07-29T00:56:02;2.55;;;2.35;;
76439;SDS011;65274;44.982;20.060;2023-07-29T00:58:28;2.88;;;2.67;;
76439;SDS011;65274;44.982;20.060;2023-07-29T01:00:54;2.67;;;2.47;;
76439;SDS011;65274;44.982;20.060;2023-07-29T01:03:20;2.95;;;2.72;;
76439;SDS011;65274;44.982;20.060;2023-07-29T01:05:52;2.60;;;2.40;;
76439;SDS011;65274;44.982;20.060;2023-07-29T01:08:26;3.35;;;2.97;;
76439;SDS011;65274;44.982;20.060;2023-07-29T01:13:20;3.00;;;2.80;;
76439;SDS011;65274;44.982;20.060;2023-07-29T01:16:10;3.17;;;2.88;;
76439;SDS011;65274;44.982;20.060;2023-07-29T01:18:35;2.28;;;2.08;;
76439;SDS011;65274;44.982;20.060;2023-07-29T01:21:03;3.40;;;3.10;;
76439;SDS011;65274;44.982;20.060;2023-07-29T01:23:30;3.30;;;3.00;;
76439;SDS011;65274;44.982;20.060;2023-07-29T01:25:56;3.17;;;2.88;;
76439;SDS011;65274;44.982;20.060;2023-07-29T01:28:22;2.60;;;2.40;;
76439;SDS011;65274;44.982;20.060;2023-07-29T01:30:49;3.47;;;3.17;;
76439;SDS011;65274;44.982;20.060;2023-07-29T01:36:20;3.08;;;2.78;;
76439;SDS011;65274;44.982;20.060;2023-07-29T01:39:06;2.90;;;2.70;;
76439;SDS011;65274;44.982;20.060;2023-07-29T01:41:33;3.35;;;3.08;;
76439;SDS011;65274;44.982;20.060;2023-07-29T01:44:00;2.83;;;2.63;;
76439;SDS011;65274;44.982;20.060;2023-07-29T01:46:27;3.35;;;3.05;;
76439;SDS011;65274;44.982;20.060;2023-07-29T01:48:53;3.05;;;2.85;;
76439;SDS011;65274;44.982;20.060;2023-07-29T01:51:20;2.72;;;2.53;;
76439;SDS011;65274;44.982;20.060;2023-07-29T01:53:46;3.42;;;3.13;;
76439;SDS011;65274;44.982;20.060;2023-07-29T01:56:12;3.97;;;3.63;;
76439;SDS011;65274;44.982;20.060;2023-07-29T01:58:38;3.40;;;3.03;;
76439;SDS011;65274;44.982;20.060;2023-07-29T02:01:04;3.20;;;3.00;;
76439;SDS011;65274;44.982;20.060;2023-07-29T02:03:31;3.90;;;3.60;;
76439;SDS011;65274;44.982;20.060;2023-07-29T02:06:16;3.83;;;3.60;;
76439;SDS011;65274;44.982;20.060;2023-07-29T02:08:42;3.75;;;3.40;;
76439;SDS011;65274;44.982;20.060;2023-07-29T02:11:09;4.18;;;3.88;;
76439;SDS011;65274;44.982;20.060;2023-07-29T02:16:39;4.68;;;4.35;;
76439;SDS011;65274;44.982;20.060;2023-07-29T02:19:06;3.97;;;3.67;;
76439;SDS011;65274;44.982;20.060;2023-07-29T02:21:53;4.93;;;4.53;;
76439;SDS011;65274;44.982;20.060;2023-07-29T02:24:38;3.92;;;3.63;;
76439;SDS011;65274;44.982;20.060;2023-07-29T02:30:21;4.60;;;4.20;;
76439;SDS011;65274;44.982;20.060;2023-07-29T02:36:26;5.65;;;5.07;;
76439;SDS011;65274;44.982;20.060;2023-07-29T02:48:07;4.72;;;4.43;;
76439;SDS011;65274;44.982;20.060;2023-07-29T02:51:17;5.00;;;4.60;;
76439;SDS011;65274;44.982;20.060;2023-07-29T03:22:21;5.43;;;5.03;;
76439;SDS011;65274;44.982;20.060;2023-07-29T03:25:18;5.72;;;5.32;;
76439;SDS011;65274;44.982;20.060;2023-07-29T03:45:59;5.38;;;4.88;;
76439;SDS011;65274;44.982;20.060;2023-07-29T03:51:42;5.45;;;4.97;;
76439;SDS011;65274;44.982;20.060;2023-07-29T03:54:29;5.43;;;4.88;;
76439;SDS011;65274;44.982;20.060;2023-07-29T03:57:14;4.65;;;4.25;;
76439;SDS011;65274;44.982;20.060;2023-07-29T03:59:40;4.90;;;4.50;;
76439;SDS011;65274;44.982;20.060;2023-07-29T04:02:07;3.95;;;3.65;;
76439;SDS011;65274;44.982;20.060;2023-07-29T04:04:33;4.18;;;3.78;;
76439;SDS011;65274;44.982;20.060;2023-07-29T04:06:59;5.63;;;4.07;;
76439;SDS011;65274;44.982;20.060;2023-07-29T04:09:26;4.03;;;3.73;;
76439;SDS011;65274;44.982;20.060;2023-07-29T04:11:53;3.58;;;3.28;;
76439;SDS011;65274;44.982;20.060;2023-07-29T04:14:19;4.65;;;4.25;;
76439;SDS011;65274;44.982;20.060;2023-07-29T04:16:45;4.15;;;3.70;;
76439;SDS011;65274;44.982;20.060;2023-07-29T04:19:11;3.65;;;3.30;;
76439;SDS011;65274;44.982;20.060;2023-07-29T04:21:37;3.63;;;3.33;;
76439;SDS011;65274;44.982;20.060;2023-07-29T04:24:03;4.03;;;3.65;;
76439;SDS011;65274;44.982;20.060;2023-07-29T04:26:29;3.72;;;3.25;;
76439;SDS011;65274;44.982;20.060;2023-07-29T04:28:55;4.00;;;3.70;;
76439;SDS011;65274;44.982;20.060;2023-07-29T04:31:21;3.58;;;3.28;;
76439;SDS011;65274;44.982;20.060;2023-07-29T04:33:47;3.65;;;3.35;;
76439;SDS011;65274;44.982;20.060;2023-07-29T04:36:13;4.53;;;4.03;;
76439;SDS011;65274;44.982;20.060;2023-07-29T04:38:39;4.47;;;4.07;;
76439;SDS011;65274;44.982;20.060;2023-07-29T04:41:06;3.80;;;3.38;;
76439;SDS011;65274;44.982;20.060;2023-07-29T04:43:32;3.58;;;3.28;;
76439;SDS011;65274;44.982;20.060;2023-07-29T04:45:58;4.13;;;3.72;;
76439;SDS011;65274;44.982;20.060;2023-07-29T04:48:24;3.60;;;3.30;;
76439;SDS011;65274;44.982;20.060;2023-07-29T04:50:50;3.90;;;3.58;;
76439;SDS011;65274;44.982;20.060;2023-07-29T04:53:16;3.17;;;2.88;;
76439;SDS011;65274;44.982;20.060;2023-07-29T04:55:42;3.80;;;3.50;;
76439;SDS011;65274;44.982;20.060;2023-07-29T04:58:09;4.50;;;4.10;;
76439;SDS011;65274;44.982;20.060;2023-07-29T05:00:35;5.15;;;3.97;;
76439;SDS011;65274;44.982;20.060;2023-07-29T05:03:01;3.97;;;3.58;;
76439;SDS011;65274;44.982;20.060;2023-07-29T05:05:27;3.80;;;3.50;;
76439;SDS011;65274;44.982;20.060;2023-07-29T05:07:53;3.38;;;3.00;;
76439;SDS011;65274;44.982;20.060;2023-07-29T05:10:19;3.47;;;3.17;;
76439;SDS011;65274;44.982;20.060;2023-07-29T05:12:45;4.53;;;4.10;;
76439;SDS011;65274;44.982;20.060;2023-07-29T05:15:11;4.82;;;4.32;;
76439;SDS011;65274;44.982;20.060;2023-07-29T05:17:37;4.38;;;4.07;;
76439;SDS011;65274;44.982;20.060;2023-07-29T05:20:04;6.13;;;5.00;;
76439;SDS011;65274;44.982;20.060;2023-07-29T05:22:30;4.38;;;3.97;;
76439;SDS011;65274;44.982;20.060;2023-07-29T05:24:56;3.97;;;3.40;;
76439;SDS011;65274;44.982;20.060;2023-07-29T05:27:22;5.63;;;4.95;;
76439;SDS011;65274;44.982;20.060;2023-07-29T05:29:48;6.40;;;5.80;;
76439;SDS011;65274;44.982;20.060;2023-07-29T05:32:14;5.75;;;5.18;;
76439;SDS011;65274;44.982;20.060;2023-07-29T05:34:40;4.70;;;4.30;;
76439;SDS011;65274;44.982;20.060;2023-07-29T05:37:06;4.80;;;4.30;;
76439;SDS011;65274;44.982;20.060;2023-07-29T05:39:32;9.13;;;6.22;;
76439;SDS011;65274;44.982;20.060;2023-07-29T05:41:58;6.85;;;6.25;;
76439;SDS011;65274;44.982;20.060;2023-07-29T05:44:27;6.00;;;5.40;;
76439;SDS011;65274;44.982;20.060;2023-07-29T05:46:55;5.80;;;5.28;;
76439;SDS011;65274;44.982;20.060;2023-07-29T05:49:22;4.97;;;3.85;;
76439;SDS011;65274;44.982;20.060;2023-07-29T05:51:48;4.38;;;3.70;;
76439;SDS011;65274;44.982;20.060;2023-07-29T05:54:15;4.07;;;3.78;;
76439;SDS011;65274;44.982;20.060;2023-07-29T05:56:41;6.10;;;3.38;;
76439;SDS011;65274;44.982;20.060;2023-07-29T05:59:07;5.15;;;4.70;;
76439;SDS011;65274;44.982;20.060;2023-07-29T06:01:40;4.50;;;4.15;;
76439;SDS011;65274;44.982;20.060;2023-07-29T06:04:14;4.00;;;3.60;;
76439;SDS011;65274;44.982;20.060;2023-07-29T06:06:40;5.45;;;4.80;;
76439;SDS011;65274;44.982;20.060;2023-07-29T06:09:06;4.82;;;4.30;;
76439;SDS011;65274;44.982;20.060;2023-07-29T06:11:32;4.22;;;3.83;;
76439;SDS011;65274;44.982;20.060;2023-07-29T06:13:58;4.60;;;4.20;;
76439;SDS011;65274;44.982;20.060;2023-07-29T06:16:24;4.43;;;3.00;;
76439;SDS011;65274;44.982;20.060;2023-07-29T06:18:50;3.38;;;3.08;;
76439;SDS011;65274;44.982;20.060;2023-07-29T06:21:18;2.83;;;2.63;;
76439;SDS011;65274;44.982;20.060;2023-07-29T06:23:45;3.97;;;2.60;;
76439;SDS011;65274;44.982;20.060;2023-07-29T06:26:11;3.08;;;2.88;;
76439;SDS011;65274;44.982;20.060;2023-07-29T06:28:37;4.82;;;3.78;;
76439;SDS011;65274;44.982;20.060;2023-07-29T06:31:03;4.18;;;3.83;;
76439;SDS011;65274;44.982;20.060;2023-07-29T06:33:29;4.15;;;3.75;;
76439;SDS011;65274;44.982;20.060;2023-07-29T06:35:55;5.32;;;3.72;;
76439;SDS011;65274;44.982;20.060;2023-07-29T06:38:21;4.45;;;3.17;;
76439;SDS011;65274;44.982;20.060;2023-07-29T06:40:48;4.28;;;3.63;;
76439;SDS011;65274;44.982;20.060;2023-07-29T06:43:14;2.83;;;2.63;;
76439;SDS011;65274;44.982;20.060;2023-07-29T06:45:40;5.57;;;4.72;;
76439;SDS011;65274;44.982;20.060;2023-07-29T06:48:06;3.72;;;3.40;;
76439;SDS011;65274;44.982;20.060;2023-07-29T06:50:33;4.60;;;4.20;;
76439;SDS011;65274;44.982;20.060;2023-07-29T06:52:59;3.40;;;3.10;;
76439;SDS011;65274;44.982;20.060;2023-07-29T06:55:25;4.82;;;4.35;;
76439;SDS011;65274;44.982;20.060;2023-07-29T06:57:51;5.53;;;4.75;;
76439;SDS011;65274;44.982;20.060;2023-07-29T07:00:18;6.35;;;5.38;;
76439;SDS011;65274;44.982;20.060;2023-07-29T07:02:44;5.20;;;4.25;;
76439;SDS011;65274;44.982;20.060;2023-07-29T07:05:10;4.45;;;4.05;;
76439;SDS011;65274;44.982;20.060;2023-07-29T07:07:36;4.57;;;4.28;;
76439;SDS011;65274;44.982;20.060;2023-07-29T07:10:03;5.95;;;5.35;;
76439;SDS011;65274;44.982;20.060;2023-07-29T07:12:29;5.15;;;4.65;;
76439;SDS011;65274;44.982;20.060;2023-07-29T07:14:55;4.30;;;3.90;;
76439;SDS011;65274;44.982;20.060;2023-07-29T07:17:21;6.50;;;5.28;;
76439;SDS011;65274;44.982;20.060;2023-07-29T07:19:47;5.38;;;4.88;;
76439;SDS011;65274;44.982;20.060;2023-07-29T07:22:13;4.45;;;3.53;;
76439;SDS011;65274;44.982;20.060;2023-07-29T07:24:39;4.43;;;3.03;;
76439;SDS011;65274;44.982;20.060;2023-07-29T07:27:05;3.97;;;3.50;;
76439;SDS011;65274;44.982;20.060;2023-07-29T07:29:32;3.97;;;3.58;;
76439;SDS011;65274;44.982;20.060;2023-07-29T07:31:58;3.58;;;3.28;;
76439;SDS011;65274;44.982;20.060;2023-07-29T07:34:24;3.17;;;2.95;;
76439;SDS011;65274;44.982;20.060;2023-07-29T07:36:51;4.03;;;3.70;;
76439;SDS011;65274;44.982;20.060;2023-07-29T07:39:17;3.70;;;2.88;;
76439;SDS011;65274;44.982;20.060;2023-07-29T07:41:43;5.05;;;4.65;;
76439;SDS011;65274;44.982;20.060;2023-07-29T07:44:09;4.28;;;3.85;;
76439;SDS011;65274;44.982;20.060;2023-07-29T07:46:37;3.40;;;3.20;;
76439;SDS011;65274;44.982;20.060;2023-07-29T07:49:03;2.55;;;2.33;;
76439;SDS011;65274;44.982;20.060;2023-07-29T07:51:30;3.40;;;3.10;;
76439;SDS011;65274;44.982;20.060;2023-07-29T07:53:56;2.78;;;2.58;;
76439;SDS011;65274;44.982;20.060;2023-07-29T07:56:22;2.53;;;2.33;;
76439;SDS011;65274;44.982;20.060;2023-07-29T07:58:48;2.43;;;2.23;;
76439;SDS011;65274;44.982;20.060;2023-07-29T08:01:14;5.27;;;2.37;;
76439;SDS011;65274;44.982;20.060;2023-07-29T08:03:40;1.90;;;1.80;;
76439;SDS011;65274;44.982;20.060;2023-07-29T08:06:06;1.90;;;1.80;;
76439;SDS011;65274;44.982;20.060;2023-07-29T08:08:32;3.28;;;2.60;;
76439;SDS011;65274;44.982;20.060;2023-07-29T08:10:58;6.38;;;2.85;;
76439;SDS011;65274;44.982;20.060;2023-07-29T08:13:24;2.38;;;2.17;;
76439;SDS011;65274;44.982;20.060;2023-07-29T08:15:51;2.40;;;2.20;;
76439;SDS011;65274;44.982;20.060;2023-07-29T08:28:01;2.30;;;2.13;;
76439;SDS011;65274;44.982;20.060;2023-07-29T08:30:27;2.45;;;2.20;;
76439;SDS011;65274;44.982;20.060;2023-07-29T08:32:53;2.67;;;2.15;;
76439;SDS011;65274;44.982;20.060;2023-07-29T08:35:19;2.05;;;1.90;;
76439;SDS011;65274;44.982;20.060;2023-07-29T08:40:11;1.73;;;1.63;;
76439;SDS011;65274;44.982;20.060;2023-07-29T08:42:39;1.83;;;1.67;;
76439;SDS011;65274;44.982;20.060;2023-07-29T08:45:06;2.30;;;2.10;;
76439;SDS011;65274;44.982;20.060;2023-07-29T08:47:36;1.90;;;1.80;;
76439;SDS011;65274;44.982;20.060;2023-07-29T08:50:03;2.10;;;1.88;;
76439;SDS011;65274;44.982;20.060;2023-07-29T08:52:29;2.33;;;2.13;;
76439;SDS011;65274;44.982;20.060;2023-07-29T08:54:57;2.40;;;2.20;;
76439;SDS011;65274;44.982;20.060;2023-07-29T08:57:23;2.20;;;1.98;;
76439;SDS011;65274;44.982;20.060;2023-07-29T08:59:49;1.48;;;1.38;;
76439;SDS011;65274;44.982;20.060;2023-07-29T09:02:15;2.55;;;2.35;;
76439;SDS011;65274;44.982;20.060;2023-07-29T09:04:42;2.28;;;1.83;;
76439;SDS011;65274;44.982;20.060;2023-07-29T09:07:08;2.25;;;2.10;;
76439;SDS011;65274;44.982;20.060;2023-07-29T09:09:35;2.28;;;2.00;;
76439;SDS011;65274;44.982;20.060;2023-07-29T09:12:02;2.40;;;2.20;;
76439;SDS011;65274;44.982;20.060;2023-07-29T09:14:28;2.60;;;2.40;;
76439;SDS011;65274;44.982;20.060;2023-07-29T09:16:54;2.35;;;2.15;;
76439;SDS011;65274;44.982;20.060;2023-07-29T09:19:20;2.65;;;2.45;;
76439;SDS011;65274;44.982;20.060;2023-07-29T09:21:46;3.28;;;2.95;;
76439;SDS011;65274;44.982;20.060;2023-07-29T09:26:39;1.95;;;1.85;;
76439;SDS011;65274;44.982;20.060;2023-07-29T09:29:06;2.20;;;2.00;;
76439;SDS011;65274;44.982;20.060;2023-07-29T09:33:59;2.53;;;2.33;;
76439;SDS011;65274;44.982;20.060;2023-07-29T09:36:26;1.60;;;1.50;;
76439;SDS011;65274;44.982;20.060;2023-07-29T09:38:55;1.90;;;1.65;;
76439;SDS011;65274;44.982;20.060;2023-07-29T09:41:24;1.00;;;1.00;;
76439;SDS011;65274;44.982;20.060;2023-07-29T09:43:58;1.33;;;1.23;;
76439;SDS011;65274;44.982;20.060;2023-07-29T09:46:25;2.00;;;1.90;;
76439;SDS011;65274;44.982;20.060;2023-07-29T09:48:52;1.77;;;1.20;;
76439;SDS011;65274;44.982;20.060;2023-07-29T09:51:21;1.40;;;1.30;;
76439;SDS011;65274;44.982;20.060;2023-07-29T09:53:48;1.70;;;1.60;;
76439;SDS011;65274;44.982;20.060;2023-07-29T09:56:14;1.98;;;1.73;;
76439;SDS011;65274;44.982;20.060;2023-07-29T09:58:42;2.05;;;1.95;;
76439;SDS011;65274;44.982;20.060;2023-07-29T10:01:10;2.38;;;2.15;;
76439;SDS011;65274;44.982;20.060;2023-07-29T10:03:36;1.40;;;1.30;;
76439;SDS011;65274;44.982;20.060;2023-07-29T10:06:03;1.50;;;1.20;;
76439;SDS011;65274;44.982;20.060;2023-07-29T10:08:30;1.23;;;1.15;;
76439;SDS011;65274;44.982;20.060;2023-07-29T10:14:07;1.30;;;1.23;;
76439;SDS011;65274;44.982;20.060;2023-07-29T10:16:36;1.70;;;1.60;;
76439;SDS011;65274;44.982;20.060;2023-07-29T10:19:03;1.20;;;1.10;;
76439;SDS011;65274;44.982;20.060;2023-07-29T10:21:29;2.95;;;2.75;;
76439;SDS011;65274;44.982;20.060;2023-07-29T10:23:57;1.98;;;1.83;;
76439;SDS011;65274;44.982;20.060;2023-07-29T10:26:26;1.58;;;1.48;;
76439;SDS011;65274;44.982;20.060;2023-07-29T10:28:54;1.58;;;1.48;;
76439;SDS011;65274;44.982;20.060;2023-07-29T10:31:21;1.60;;;1.50;;
76439;SDS011;65274;44.982;20.060;2023-07-29T10:33:48;1.00;;;1.00;;
76439;SDS011;65274;44.982;20.060;2023-07-29T10:36:15;1.50;;;1.40;;
76439;SDS011;65274;44.982;20.060;2023-07-29T10:38:41;1.50;;;1.40;;
76439;SDS011;65274;44.982;20.060;2023-07-29T10:41:07;0.85;;;0.80;;
76439;SDS011;65274;44.982;20.060;2023-07-29T10:43:35;1.38;;;1.10;;
76439;SDS011;65274;44.982;20.060;2023-07-29T10:46:18;1.13;;;1.13;;
76439;SDS011;65274;44.982;20.060;2023-07-29T10:48:54;1.45;;;1.33;;
76439;SDS011;65274;44.982;20.060;2023-07-29T10:54:31;8.40;;;1.52;;
76439;SDS011;65274;44.982;20.060;2023-07-29T10:56:54;1.20;;;1.17;;
76439;SDS011;65274;44.982;20.060;2023-07-29T11:01:51;1.00;;;1.00;;
76439;SDS011;65274;44.982;20.060;2023-07-29T11:09:39;1.00;;;1.00;;
76439;SDS011;65274;44.982;20.060;2023-07-29T11:15:00;0.95;;;0.95;;
76439;SDS011;65274;44.982;20.060;2023-07-29T11:17:35;1.08;;;1.08;;
76439;SDS011;65274;44.982;20.060;2023-07-29T11:20:01;1.08;;;1.08;;
76439;SDS011;65274;44.982;20.060;2023-07-29T11:22:32;1.67;;;1.58;;
76439;SDS011;65274;44.982;20.060;2023-07-29T11:24:58;1.73;;;1.63;;
76439;SDS011;65274;44.982;20.060;2023-07-29T11:27:25;1.63;;;1.50;;
76439;SDS011;65274;44.982;20.060;2023-07-29T11:29:56;1.95;;;1.85;;
76439;SDS011;65274;44.982;20.060;2023-07-29T11:32:23;1.45;;;1.42;;
76439;SDS011;65274;44.982;20.060;2023-07-29T11:34:50;1.00;;;1.00;;
76439;SDS011;65274;44.982;20.060;2023-07-29T11:37:17;1.20;;;1.20;;
76439;SDS011;65274;44.982;20.060;2023-07-29T11:39:51;1.35;;;1.25;;
76439;SDS011;65274;44.982;20.060;2023-07-29T11:42:23;1.10;;;1.10;;
76439;SDS011;65274;44.982;20.060;2023-07-29T11:44:50;1.90;;;1.70;;
76439;SDS011;65274;44.982;20.060;2023-07-29T11:47:16;2.55;;;2.03;;
76439;SDS011;65274;44.982;20.060;2023-07-29T11:49:42;1.55;;;1.45;;
76439;SDS011;65274;44.982;20.060;2023-07-29T11:52:08;1.70;;;1.60;;
76439;SDS011;65274;44.982;20.060;2023-07-29T11:54:35;2.80;;;2.03;;
76439;SDS011;65274;44.982;20.060;2023-07-29T11:57:08;2.35;;;1.98;;
76439;SDS011;65274;44.982;20.060;2023-07-29T11:59:35;1.40;;;1.30;;
76439;SDS011;65274;44.982;20.060;2023-07-29T12:02:06;1.45;;;1.35;;
76439;SDS011;65274;44.982;20.060;2023-07-29T12:04:34;1.70;;;1.20;;
76439;SDS011;65274;44.982;20.060;2023-07-29T12:07:01;1.73;;;1.60;;
76439;SDS011;65274;44.982;20.060;2023-07-29T12:09:35;1.45;;;1.42;;
76439;SDS011;65274;44.982;20.060;2023-07-29T12:12:06;1.67;;;1.58;;
76439;SDS011;65274;44.982;20.060;2023-07-29T12:14:33;1.40;;;1.30;;
76439;SDS011;65274;44.982;20.060;2023-07-29T12:17:00;1.42;;;1.33;;
76439;SDS011;65274;44.982;20.060;2023-07-29T12:19:31;1.42;;;1.35;;
76439;SDS011;65274;44.982;20.060;2023-07-29T12:21:58;1.52;;;1.42;;
76439;SDS011;65274;44.982;20.060;2023-07-29T12:24:24;1.80;;;1.70;;
76439;SDS011;65274;44.982;20.060;2023-07-29T12:26:50;1.60;;;1.50;;
76439;SDS011;65274;44.982;20.060;2023-07-29T12:29:17;2.00;;;1.90;;
76439;SDS011;65274;44.982;20.060;2023-07-29T12:31:46;1.80;;;1.70;;
76439;SDS011;65274;44.982;20.060;2023-07-29T12:34:19;1.70;;;1.58;;
76439;SDS011;65274;44.982;20.060;2023-07-29T12:36:46;2.22;;;1.73;;
76439;SDS011;65274;44.982;20.060;2023-07-29T12:39:23;1.42;;;1.40;;
76439;SDS011;65274;44.982;20.060;2023-07-29T12:41:50;1.58;;;1.48;;
76439;SDS011;65274;44.982;20.060;2023-07-29T12:44:16;1.20;;;1.20;;
76439;SDS011;65274;44.982;20.060;2023-07-29T12:46:43;1.70;;;1.60;;
76439;SDS011;65274;44.982;20.060;2023-07-29T12:49:09;1.52;;;1.42;;
76439;SDS011;65274;44.982;20.060;2023-07-29T12:51:35;1.60;;;1.50;;
76439;SDS011;65274;44.982;20.060;2023-07-29T12:54:05;2.08;;;1.98;;
76439;SDS011;65274;44.982;20.060;2023-07-29T12:56:31;2.05;;;1.95;;
76439;SDS011;65274;44.982;20.060;2023-07-29T12:58:57;2.05;;;1.95;;
76439;SDS011;65274;44.982;20.060;2023-07-29T13:01:24;2.28;;;2.08;;
76439;SDS011;65274;44.982;20.060;2023-07-29T13:03:50;1.95;;;1.85;;
76439;SDS011;65274;44.982;20.060;2023-07-29T13:06:16;2.03;;;1.92;;
76439;SDS011;65274;44.982;20.060;2023-07-29T13:08:43;2.03;;;1.92;;
76439;SDS011;65274;44.982;20.060;2023-07-29T13:11:10;1.77;;;1.67;;
76439;SDS011;65274;44.982;20.060;2023-07-29T13:13:36;2.72;;;2.05;;
76439;SDS011;65274;44.982;20.060;2023-07-29T13:16:03;1.80;;;1.70;;
76439;SDS011;65274;44.982;20.060;2023-07-29T13:18:29;1.70;;;1.60;;
76439;SDS011;65274;44.982;20.060;2023-07-29T13:20:55;1.45;;;1.35;;
76439;SDS011;65274;44.982;20.060;2023-07-29T13:23:22;1.75;;;1.65;;
76439;SDS011;65274;44.982;20.060;2023-07-29T13:25:48;1.15;;;1.13;;
76439;SDS011;65274;44.982;20.060;2023-07-29T13:28:15;2.10;;;1.92;;
76439;SDS011;65274;44.982;20.060;2023-07-29T13:30:41;2.70;;;2.50;;
76439;SDS011;65274;44.982;20.060;2023-07-29T13:33:08;1.80;;;1.70;;
76439;SDS011;65274;44.982;20.060;2023-07-29T13:35:35;2.20;;;2.00;;
76439;SDS011;65274;44.982;20.060;2023-07-29T13:38:01;1.60;;;1.50;;
76439;SDS011;65274;44.982;20.060;2023-07-29T13:40:30;1.60;;;1.50;;
76439;SDS011;65274;44.982;20.060;2023-07-29T13:42:56;2.50;;;2.13;;
76439;SDS011;65274;44.982;20.060;2023-07-29T13:45:22;1.83;;;1.73;;
76439;SDS011;65274;44.982;20.060;2023-07-29T13:47:49;2.17;;;1.95;;
76439;SDS011;65274;44.982;20.060;2023-07-29T13:50:15;2.63;;;2.42;;
76439;SDS011;65274;44.982;20.060;2023-07-29T13:52:41;1.83;;;1.73;;
76439;SDS011;65274;44.982;20.060;2023-07-29T13:55:08;2.30;;;2.10;;
76439;SDS011;65274;44.982;20.060;2023-07-29T13:57:35;2.75;;;1.80;;
76439;SDS011;65274;44.982;20.060;2023-07-29T14:00:02;1.80;;;1.70;;
76439;SDS011;65274;44.982;20.060;2023-07-29T14:02:28;2.33;;;2.13;;
76439;SDS011;65274;44.982;20.060;2023-07-29T14:04:56;2.08;;;1.88;;
76439;SDS011;65274;44.982;20.060;2023-07-29T14:07:22;2.33;;;2.13;;
76439;SDS011;65274;44.982;20.060;2023-07-29T14:09:48;2.85;;;2.65;;
76439;SDS011;65274;44.982;20.060;2023-07-29T14:12:14;2.50;;;2.30;;
76439;SDS011;65274;44.982;20.060;2023-07-29T14:14:43;7.15;;;2.88;;
76439;SDS011;65274;44.982;20.060;2023-07-29T14:17:09;2.65;;;2.20;;
76439;SDS011;65274;44.982;20.060;2023-07-29T14:19:36;2.25;;;2.05;;
76439;SDS011;65274;44.982;20.060;2023-07-29T14:22:02;3.20;;;2.90;;
76439;SDS011;65274;44.982;20.060;2023-07-29T14:24:29;3.65;;;2.65;;
76439;SDS011;65274;44.982;20.060;2023-07-29T14:26:55;1.83;;;1.73;;
76439;SDS011;65274;44.982;20.060;2023-07-29T14:29:21;2.58;;;2.38;;
76439;SDS011;65274;44.982;20.060;2023-07-29T14:31:47;2.10;;;1.90;;
76439;SDS011;65274;44.982;20.060;2023-07-29T14:34:13;2.15;;;1.95;;
76439;SDS011;65274;44.982;20.060;2023-07-29T14:36:39;2.20;;;2.00;;
76439;SDS011;65274;44.982;20.060;2023-07-29T14:39:05;3.17;;;2.88;;
76439;SDS011;65274;44.982;20.060;2023-07-29T14:41:39;2.35;;;2.15;;
76439;SDS011;65274;44.982;20.060;2023-07-29T14:44:07;5.13;;;3.08;;
76439;SDS011;65274;44.982;20.060;2023-07-29T14:46:34;3.33;;;2.35;;
76439;SDS011;65274;44.982;20.060;2023-07-29T14:49:00;2.40;;;2.20;;
76439;SDS011;65274;44.982;20.060;2023-07-29T14:51:26;1.67;;;1.58;;
76439;SDS011;65274;44.982;20.060;2023-07-29T14:53:52;2.17;;;2.08;;
76439;SDS011;65274;44.982;20.060;2023-07-29T14:56:18;2.75;;;2.55;;
76439;SDS011;65274;44.982;20.060;2023-07-29T14:58:44;1.58;;;1.48;;
76439;SDS011;65274;44.982;20.060;2023-07-29T15:01:10;1.77;;;1.67;;
76439;SDS011;65274;44.982;20.060;2023-07-29T15:03:36;3.35;;;2.60;;
76439;SDS011;65274;44.982;20.060;2023-07-29T15:06:04;2.90;;;2.70;;
76439;SDS011;65274;44.982;20.060;2023-07-29T15:08:30;2.30;;;2.13;;
76439;SDS011;65274;44.982;20.060;2023-07-29T15:10:56;2.13;;;1.92;;
76439;SDS011;65274;44.982;20.060;2023-07-29T15:13:22;1.75;;;1.65;;
76439;SDS011;65274;44.982;20.060;2023-07-29T15:15:48;1.88;;;1.77;;
76439;SDS011;65274;44.982;20.060;2023-07-29T15:18:16;2.22;;;2.08;;
76439;SDS011;65274;44.982;20.060;2023-07-29T15:20:42;1.63;;;1.52;;
76439;SDS011;65274;44.982;20.060;2023-07-29T15:23:08;2.00;;;1.90;;
76439;SDS011;65274;44.982;20.060;2023-07-29T15:25:34;3.90;;;2.95;;
76439;SDS011;65274;44.982;20.060;2023-07-29T15:28:00;3.05;;;2.40;;
76439;SDS011;65274;44.982;20.060;2023-07-29T15:30:26;2.10;;;1.90;;
76439;SDS011;65274;44.982;20.060;2023-07-29T15:32:52;2.55;;;2.33;;
76439;SDS011;65274;44.982;20.060;2023-07-29T15:35:21;2.13;;;2.03;;
76439;SDS011;65274;44.982;20.060;2023-07-29T15:37:47;2.92;;;2.70;;
76439;SDS011;65274;44.982;20.060;2023-07-29T15:40:13;2.95;;;2.75;;
76439;SDS011;65274;44.982;20.060;2023-07-29T15:42:39;2.35;;;2.25;;
76439;SDS011;65274;44.982;20.060;2023-07-29T15:45:05;2.55;;;2.30;;
76439;SDS011;65274;44.982;20.060;2023-07-29T15:47:31;3.42;;;3.22;;
76439;SDS011;65274;44.982;20.060;2023-07-29T15:49:57;2.72;;;2.53;;
76439;SDS011;65274;44.982;20.060;2023-07-29T15:52:23;3.33;;;2.90;;
76439;SDS011;65274;44.982;20.060;2023-07-29T15:54:51;2.55;;;2.10;;
76439;SDS011;65274;44.982;20.060;2023-07-29T15:57:19;2.60;;;2.22;;
76439;SDS011;65274;44.982;20.060;2023-07-29T15:59:45;1.80;;;1.70;;
76439;SDS011;65274;44.982;20.060;2023-07-29T16:02:11;2.30;;;2.13;;
76439;SDS011;65274;44.982;20.060;2023-07-29T16:04:37;2.63;;;2.10;;
76439;SDS011;65274;44.982;20.060;2023-07-29T16:07:03;2.70;;;2.50;;
76439;SDS011;65274;44.982;20.060;2023-07-29T16:09:30;3.05;;;2.72;;
76439;SDS011;65274;44.982;20.060;2023-07-29T16:11:56;2.45;;;2.25;;
76439;SDS011;65274;44.982;20.060;2023-07-29T16:14:22;2.03;;;1.90;;
76439;SDS011;65274;44.982;20.060;2023-07-29T16:16:48;1.80;;;1.70;;
76439;SDS011;65274;44.982;20.060;2023-07-29T16:19:22;1.95;;;1.75;;
76439;SDS011;65274;44.982;20.060;2023-07-29T16:21:48;1.83;;;1.73;;
76439;SDS011;65274;44.982;20.060;2023-07-29T16:24:14;2.03;;;1.88;;